createdAt,value
2024-04-08T06:44:33.622Z,18.20
2024-04-08T06:47:01.555Z,18.80
2024-04-08T06:49:28.536Z,19.40
2024-04-08T06:51:55.547Z,19.80
2024-04-08T06:54:22.617Z,20.10
2024-04-08T06:56:49.900Z,20.50
2024-04-08T06:59:17.139Z,20.90
2024-04-08T07:01:44.205Z,21.20
2024-04-08T07:04:11.204Z,21.40
2024-04-08T07:06:38.278Z,21.70
2024-04-08T07:09:05.340Z,22.20
2024-04-08T07:11:32.372Z,22.50
2024-04-08T07:13:59.388Z,22.50
2024-04-08T07:16:26.404Z,22.60
2024-04-08T07:18:53.352Z,22.60
2024-04-08T07:21:20.375Z,22.50
2024-04-08T07:23:53.265Z,22.50
2024-04-08T07:26:20.751Z,22.30
2024-04-08T07:28:47.819Z,22.10
2024-04-08T07:31:14.838Z,22.00
2024-04-08T07:33:42.029Z,21.90
2024-04-08T07:36:09.254Z,21.80
2024-04-08T07:38:36.345Z,21.70
2024-04-08T07:41:03.393Z,21.70
2024-04-08T07:43:31.857Z,21.60
2024-04-08T07:45:58.902Z,21.80
2024-04-08T07:48:26.030Z,21.80
2024-04-08T07:50:53.535Z,22.00
2024-04-08T07:53:20.590Z,22.10
2024-04-08T07:55:47.609Z,22.20
2024-04-08T07:58:14.651Z,22.50
2024-04-08T08:00:46.202Z,22.70
2024-04-08T08:03:15.291Z,22.80
2024-04-08T08:05:43.998Z,22.90
2024-04-08T08:08:11.160Z,22.80
2024-04-08T08:10:38.204Z,22.90
2024-04-08T08:13:05.673Z,22.90
2024-04-08T08:15:33.215Z,22.80
2024-04-08T08:18:00.338Z,22.80
2024-04-08T08:20:28.301Z,23.00
2024-04-08T08:22:58.242Z,23.30
2024-04-08T08:25:25.944Z,23.70
2024-04-08T08:27:53.214Z,24.30
2024-04-08T08:30:20.331Z,25.10
2024-04-08T08:32:48.231Z,25.40
2024-04-08T08:35:15.567Z,25.50
2024-04-08T08:37:45.245Z,25.70
2024-04-08T08:40:12.632Z,26.00
2024-04-08T08:42:39.891Z,25.70
2024-04-08T08:45:12.559Z,25.80
2024-04-08T08:47:40.119Z,26.30
2024-04-08T08:50:07.708Z,26.60
2024-04-08T08:52:35.145Z,26.90
2024-04-08T08:55:02.714Z,27.40
2024-04-08T08:57:31.423Z,27.90
2024-04-08T09:00:05.082Z,28.00
2024-04-08T09:02:33.999Z,27.80
2024-04-08T09:05:01.030Z,28.30
2024-04-08T09:07:28.067Z,28.90
2024-04-08T09:09:56.115Z,28.50
2024-04-08T09:12:23.283Z,28.20
2024-04-08T09:14:51.754Z,28.30
2024-04-08T09:17:19.761Z,29.00
2024-04-08T09:19:46.820Z,28.90
2024-04-08T09:22:15.161Z,29.60
2024-04-08T09:24:44.000Z,29.90
2024-04-08T09:27:11.847Z,30.30
2024-04-08T09:29:40.224Z,30.40
2024-04-08T09:32:09.807Z,30.70
2024-04-08T09:34:37.180Z,30.60
2024-04-08T09:37:05.102Z,30.40
2024-04-08T09:39:33.177Z,30.50
2024-04-08T09:42:01.675Z,30.70
2024-04-08T09:44:32.270Z,31.10
2024-04-08T09:47:03.246Z,31.40
2024-04-08T09:49:41.568Z,31.80
2024-04-08T09:52:14.781Z,32.10
2024-04-08T09:54:41.789Z,32.50
2024-04-08T09:57:11.924Z,33.50
2024-04-08T09:59:39.957Z,34.60
2024-04-08T10:02:22.024Z,34.20
2024-04-08T10:04:54.283Z,34.60
2024-04-08T10:07:21.382Z,35.70
2024-04-08T10:09:48.428Z,35.80
2024-04-08T10:12:15.475Z,34.80
2024-04-08T10:14:42.524Z,35.00
2024-04-08T10:17:10.303Z,36.60
2024-04-08T10:19:37.289Z,35.50
2024-04-08T10:22:04.500Z,34.70
2024-04-08T10:24:39.913Z,34.80
2024-04-08T10:27:09.846Z,35.20
2024-04-08T10:29:37.463Z,35.60
2024-04-08T10:32:05.431Z,35.90
2024-04-08T10:34:35.188Z,35.80
2024-04-08T10:37:02.170Z,36.20
2024-04-08T10:39:29.636Z,36.20
2024-04-08T10:41:59.568Z,36.30
2024-04-08T10:44:29.381Z,36.70
2024-04-08T10:46:56.538Z,36.50
2024-04-08T10:49:23.646Z,36.30
2024-04-08T10:51:52.400Z,36.70
2024-04-08T10:54:22.290Z,36.80
2024-04-08T10:56:50.361Z,36.70
2024-04-08T10:59:17.499Z,36.50
2024-04-08T11:01:45.253Z,36.40
2024-04-08T11:04:13.499Z,36.30
2024-04-08T11:06:41.077Z,36.80
2024-04-08T11:09:08.178Z,37.20
2024-04-08T11:11:35.251Z,36.40
2024-04-08T11:14:06.011Z,36.60
2024-04-08T11:16:34.082Z,36.50
2024-04-08T11:19:02.574Z,36.80
2024-04-08T11:21:29.714Z,36.70
2024-04-08T11:23:56.968Z,36.40
2024-04-08T11:26:24.263Z,36.40
2024-04-08T11:28:51.347Z,36.20
2024-04-08T11:31:18.444Z,35.90
2024-04-08T11:33:45.574Z,35.60
2024-04-08T11:36:12.852Z,35.30
2024-04-08T11:38:43.320Z,35.50
2024-04-08T11:41:10.540Z,35.60
2024-04-08T11:43:37.789Z,35.50
2024-04-08T11:46:05.600Z,35.90
2024-04-08T11:48:33.366Z,36.00
2024-04-08T11:51:00.685Z,35.90
2024-04-08T11:53:27.851Z,36.00
2024-04-08T11:55:54.893Z,35.70
2024-04-08T11:58:21.979Z,35.90
2024-04-08T12:00:49.613Z,36.40
2024-04-08T12:03:16.981Z,36.40
2024-04-08T12:05:45.570Z,36.30
2024-04-08T12:08:12.650Z,36.50
2024-04-08T12:10:40.095Z,36.30
2024-04-08T12:13:18.259Z,36.30
2024-04-08T12:15:46.329Z,36.30
2024-04-08T12:18:13.995Z,35.90
2024-04-08T12:20:41.087Z,36.20
2024-04-08T12:23:12.730Z,36.30
2024-04-08T12:25:40.910Z,36.30
2024-04-08T12:28:11.056Z,36.50
2024-04-08T12:30:38.113Z,36.70
2024-04-08T12:33:05.372Z,37.20
2024-04-08T12:35:32.399Z,37.40
2024-04-08T12:37:59.530Z,37.50
2024-04-08T12:40:26.637Z,37.80
2024-04-08T12:42:53.707Z,37.20
2024-04-08T12:45:21.150Z,37.00
2024-04-08T12:47:49.122Z,36.80
2024-04-08T12:50:16.312Z,36.80
2024-04-08T12:52:43.581Z,36.80
2024-04-08T12:55:10.713Z,37.00
2024-04-08T12:57:37.877Z,37.00
2024-04-08T13:00:06.502Z,37.20
2024-04-08T13:02:33.624Z,37.40
2024-04-08T13:05:00.620Z,36.60
2024-04-08T13:07:27.932Z,36.60
2024-04-08T13:09:54.982Z,36.50
2024-04-08T13:12:22.353Z,36.40
2024-04-08T13:14:49.979Z,36.60
2024-04-08T13:17:17.038Z,36.80
2024-04-08T13:19:46.378Z,36.30
2024-04-08T13:22:13.596Z,36.10
2024-04-08T13:24:40.577Z,36.10
2024-04-08T13:27:07.689Z,36.20
2024-04-08T13:29:34.827Z,36.10
2024-04-08T13:32:01.931Z,36.30
2024-04-08T13:34:29.084Z,36.20
2024-04-08T13:36:56.286Z,36.30
2024-04-08T13:39:23.402Z,36.10
2024-04-08T13:41:50.470Z,36.20
2024-04-08T13:44:17.451Z,36.10
2024-04-08T13:46:44.729Z,36.10
2024-04-08T13:49:11.803Z,36.10
2024-04-08T13:51:39.181Z,35.80
2024-04-08T13:54:06.384Z,35.70
2024-04-08T13:56:36.193Z,35.50
2024-04-08T13:59:03.947Z,35.60
2024-04-08T14:01:31.443Z,36.10
2024-04-08T14:04:00.302Z,36.10
2024-04-08T14:06:28.024Z,35.70
2024-04-08T14:08:55.205Z,36.00
2024-04-08T14:11:25.450Z,35.80
2024-04-08T14:14:04.923Z,35.10
2024-04-08T14:16:32.336Z,34.50
2024-04-08T14:18:59.491Z,34.00
2024-04-08T14:21:26.498Z,33.50
2024-04-08T14:23:53.582Z,33.50
2024-04-08T14:26:24.084Z,33.50
2024-04-08T14:28:51.177Z,32.60
2024-04-08T14:31:18.368Z,32.50
2024-04-08T14:33:57.941Z,32.60
2024-04-08T14:36:34.379Z,33.30
2024-04-08T14:39:22.092Z,33.50
2024-04-08T14:45:24.783Z,33.60
2024-04-08T14:48:44.232Z,33.70
2024-04-08T14:51:22.217Z,33.70
2024-04-08T14:53:51.036Z,33.80
2024-04-08T14:59:21.819Z,33.80
2024-04-08T15:02:24.324Z,33.90
2024-04-08T15:05:01.212Z,34.00
2024-04-08T15:07:32.174Z,33.60
2024-04-08T15:09:59.406Z,33.40
2024-04-08T15:12:26.555Z,33.20
2024-04-08T15:14:53.636Z,33.00
2024-04-08T15:17:22.621Z,33.00
2024-04-08T15:19:50.416Z,32.90
2024-04-08T15:22:17.423Z,33.00
2024-04-08T15:24:49.128Z,32.90
2024-04-08T15:27:16.418Z,32.70
2024-04-08T15:29:46.618Z,32.60
2024-04-08T15:32:14.391Z,32.60
2024-04-08T15:34:45.639Z,32.20
2024-04-08T15:37:13.083Z,32.00
2024-04-08T15:39:40.190Z,31.80
2024-04-08T15:42:07.330Z,32.00
2024-04-08T15:44:34.370Z,31.80
2024-04-08T15:47:04.190Z,31.40
2024-04-08T15:49:36.983Z,31.20
2024-04-08T15:55:30.742Z,30.70
2024-04-08T15:58:04.294Z,30.80
2024-04-08T16:00:40.705Z,30.80
2024-04-08T16:03:21.740Z,30.80
2024-04-08T16:05:49.407Z,30.40
2024-04-08T16:08:24.241Z,30.00
2024-04-08T16:10:52.128Z,29.80
2024-04-08T16:13:19.423Z,29.50
2024-04-08T16:15:56.380Z,29.20
2024-04-08T16:33:24.674Z,27.80
2024-04-08T16:36:04.492Z,27.40
2024-04-08T16:44:25.546Z,26.60
2024-04-08T16:47:46.493Z,26.60
2024-04-08T16:50:13.698Z,26.40
2024-04-08T16:52:40.917Z,26.30
2024-04-08T16:55:09.125Z,26.10
2024-04-08T16:57:41.303Z,25.90
2024-04-08T17:00:17.689Z,25.90
2024-04-08T17:02:54.639Z,25.60
2024-04-08T17:05:24.143Z,25.50
2024-04-08T17:07:52.438Z,25.30
2024-04-08T17:10:23.396Z,25.20
2024-04-08T17:12:50.424Z,25.10
2024-04-08T17:15:20.611Z,25.00
2024-04-08T17:18:01.460Z,24.90
2024-04-08T17:23:21.241Z,24.60
2024-04-08T17:26:13.131Z,24.50
2024-04-08T17:28:57.092Z,24.40
2024-04-08T17:31:24.232Z,24.20
2024-04-08T17:33:51.383Z,24.10
2024-04-08T17:36:18.618Z,23.90
2024-04-08T17:38:48.680Z,23.80
2024-04-08T17:41:19.632Z,23.70
2024-04-08T17:43:56.117Z,23.50
2024-04-08T17:46:23.440Z,23.40
2024-04-08T17:48:50.714Z,23.30
2024-04-08T17:51:17.861Z,23.20
2024-04-08T17:53:44.927Z,23.10
2024-04-08T17:56:15.157Z,23.00
2024-04-08T17:58:42.407Z,22.80
2024-04-08T18:01:15.710Z,22.70
2024-04-08T18:03:44.641Z,22.70
2024-04-08T18:06:12.953Z,22.50
2024-04-08T18:08:44.270Z,22.50
2024-04-08T18:11:13.414Z,22.30
2024-04-08T18:13:41.238Z,22.30
2024-04-08T18:16:19.725Z,22.20
2024-04-08T18:18:50.330Z,22.00
2024-04-08T18:21:18.492Z,21.90
2024-04-08T18:23:47.306Z,21.80
2024-04-08T18:26:18.670Z,21.90
2024-04-08T18:28:49.301Z,21.80
2024-04-08T18:31:17.653Z,21.70
2024-04-08T18:33:47.378Z,21.70
2024-04-08T18:36:16.179Z,21.60
2024-04-08T18:39:23.259Z,21.50
2024-04-08T18:41:54.426Z,21.40
2024-04-08T18:44:24.507Z,21.30
2024-04-08T18:50:08.274Z,21.20
2024-04-08T18:52:35.369Z,21.10
2024-04-08T18:55:02.454Z,21.00
2024-04-08T18:57:40.261Z,21.10
2024-04-08T19:00:28.324Z,20.90
2024-04-08T19:13:10.099Z,20.60
2024-04-08T19:18:57.608Z,20.50
2024-04-08T19:21:25.405Z,20.60
2024-04-08T19:23:52.458Z,20.60
2024-04-08T19:29:42.953Z,20.50
2024-04-08T19:32:44.930Z,20.40
2024-04-08T19:35:16.220Z,20.30
2024-04-08T19:37:44.668Z,20.20
2024-04-08T19:40:23.215Z,20.20
2024-04-08T19:43:03.529Z,20.20
2024-04-08T19:45:37.848Z,20.10
2024-04-08T19:48:13.593Z,20.00
2024-04-08T19:51:36.180Z,19.80
2024-04-08T19:54:46.622Z,19.70
2024-04-08T19:57:24.122Z,19.70
2024-04-08T20:02:39.712Z,19.60
2024-04-08T20:05:18.839Z,19.60
2024-04-08T20:08:17.447Z,19.50
2024-04-08T20:10:51.563Z,19.40
2024-04-08T20:13:34.801Z,19.30
2024-04-08T20:16:16.506Z,19.10
2024-04-08T20:18:46.918Z,19.00
2024-04-08T20:25:10.201Z,18.80
2024-04-08T20:27:37.829Z,18.80
2024-04-08T20:30:07.095Z,18.80
2024-04-08T20:35:44.186Z,18.80
2024-04-08T20:43:40.786Z,18.80
2024-04-08T20:47:23.272Z,18.70
2024-04-08T20:58:35.147Z,18.40
2024-04-08T21:31:57.687Z,18.80
2024-04-08T21:38:21.141Z,18.80
2024-04-08T21:41:24.233Z,18.80
2024-04-08T21:44:36.959Z,18.80
2024-04-08T21:49:39.487Z,18.80
2024-04-08T21:52:13.217Z,18.80
2024-04-08T21:54:40.681Z,18.70
2024-04-08T21:57:13.695Z,18.70
2024-04-08T22:00:01.574Z,18.60
2024-04-08T22:02:28.787Z,18.60
2024-04-08T22:05:23.239Z,18.70
2024-04-08T22:10:48.421Z,18.70
2024-04-08T22:13:15.647Z,18.70
2024-04-08T22:15:43.418Z,18.70
2024-04-08T22:18:14.214Z,18.70
2024-04-08T22:21:26.812Z,18.60
2024-04-08T22:25:17.700Z,18.50
2024-04-08T22:27:29.712Z,18.60
2024-04-08T22:36:37.809Z,18.60
2024-04-08T22:39:09.074Z,18.50
2024-04-08T22:41:44.363Z,18.50
2024-04-08T22:44:19.950Z,18.30
2024-04-08T22:46:55.575Z,18.30
2024-04-08T22:58:49.235Z,18.00
2024-04-08T23:01:25.364Z,17.90
2024-04-08T23:09:02.284Z,17.70
2024-04-08T23:12:18.660Z,17.50
2024-04-08T23:15:28.361Z,17.40
2024-04-08T23:19:06.639Z,17.40
2024-04-08T23:22:12.514Z,17.30
2024-04-08T23:24:58.948Z,17.20
2024-04-08T23:28:01.810Z,17.10
2024-04-08T23:30:52.898Z,17.00
2024-04-08T23:34:14.875Z,17.00
2024-04-08T23:44:38.247Z,17.50
2024-04-08T23:54:20.977Z,18.70
2024-04-08T23:57:02.729Z,18.90
2024-04-08T23:59:33.196Z,18.90
